Time;durP1;ratioP1;P1;durP2;ratioP2;P2;SDS_P1;SDS_P2;PMS_P1;PMS_P2;Temp;Humidity;BMP_temperature;BMP_pressure;BME280_temperature;BME280_humidity;BME280_pressure;Samples;Min_cycle;Max_cycle;Signal;HPM_P1;HPM_P2
2021/08/11 00:00:23;;;;;;;2.70;2.50;;;;;;;;;;492331;241;27454;-71
2021/08/11 00:02:24;;;;;;;2.80;2.60;;;15.20;99.90;;;;;;492323;241;27511;-72
2021/08/11 00:04:26;;;;;;;3.13;2.77;;;;;;;;;;492310;241;28817;-72
2021/08/11 00:06:28;;;;;;;2.60;2.40;;;;;;;;;;492346;241;27582;-72
2021/08/11 00:08:31;;;;;;;2.83;2.63;;;;;;;;;;492314;241;27532;-72
2021/08/11 00:10:32;;;;;;;2.73;2.53;;;15.30;99.90;;;;;;492270;241;27407;-72
2021/08/11 00:12:33;;;;;;;2.73;2.47;;;15.30;99.90;;;;;;492307;241;28926;-69
2021/08/11 00:14:34;;;;;;;2.43;2.33;;;15.30;99.90;;;;;;492300;241;28847;-69
2021/08/11 00:16:35;;;;;;;2.90;2.70;;;15.30;99.90;;;;;;492319;241;29442;-72
2021/08/11 00:18:37;;;;;;;2.70;2.50;;;15.30;99.90;;;;;;492314;241;29214;-71
2021/08/11 00:20:38;;;;;;;9.57;2.43;;;15.30;99.90;;;;;;492328;241;29287;-69
2021/08/11 00:22:39;;;;;;;3.23;2.93;;;15.30;99.90;;;;;;492327;241;29166;-69
2021/08/11 00:24:40;;;;;;;2.90;2.67;;;15.30;99.90;;;;;;492329;241;28814;-69
2021/08/11 00:26:42;;;;;;;2.53;2.33;;;15.20;99.90;;;;;;492325;241;28794;-69
2021/08/11 00:28:43;;;;;;;3.17;2.87;;;15.30;99.90;;;;;;492353;241;28770;-69
2021/08/11 00:30:44;;;;;;;2.70;2.50;;;15.20;99.90;;;;;;492301;241;28822;-70
2021/08/11 00:32:45;;;;;;;2.77;2.40;;;15.20;99.90;;;;;;492336;241;28675;-69
2021/08/11 00:34:47;;;;;;;2.70;2.50;;;15.20;99.90;;;;;;492347;241;28960;-69
2021/08/11 00:36:48;;;;;;;2.40;2.30;;;15.20;99.90;;;;;;492330;241;28817;-69
2021/08/11 00:38:49;;;;;;;2.90;2.70;;;15.20;99.90;;;;;;492346;241;28859;-69
2021/08/11 00:40:50;;;;;;;2.80;2.60;;;15.20;99.90;;;;;;492378;241;29389;-70
2021/08/11 00:42:52;;;;;;;2.43;2.30;;;15.20;99.90;;;;;;492298;241;29247;-72
2021/08/11 00:44:53;;;;;;;2.80;2.60;;;15.20;99.90;;;;;;492317;241;29363;-70
2021/08/11 00:46:54;;;;;;;2.87;2.67;;;15.20;99.90;;;;;;492340;241;28819;-70
2021/08/11 00:48:55;;;;;;;2.60;2.40;;;15.20;99.90;;;;;;492325;241;28779;-70
2021/08/11 00:50:57;;;;;;;2.97;2.77;;;15.30;99.90;;;;;;492309;241;28813;-70
2021/08/11 00:52:58;;;;;;;2.60;2.40;;;15.30;99.90;;;;;;492326;241;28810;-72
2021/08/11 00:55:00;;;;;;;5.63;2.90;;;;;;;;;;492309;241;28770;-72
2021/08/11 00:57:04;;;;;;;2.97;2.57;;;;;;;;;;492306;241;27549;-72
2021/08/11 00:59:03;;;;;;;2.77;2.57;;;15.30;99.90;;;;;;492258;241;27463;-70
2021/08/11 01:01:06;;;;;;;2.50;2.33;;;;;;;;;;492339;241;28817;-71
2021/08/11 01:03:08;;;;;;;2.47;2.27;;;;;;;;;;492317;241;27411;-72
2021/08/11 01:05:09;;;;;;;2.30;2.20;;;15.40;99.90;;;;;;492336;241;27486;-72
2021/08/11 01:07:11;;;;;;;2.47;2.27;;;;;;;;;;492353;241;29381;-70
2021/08/11 01:09:13;;;;;;;2.70;2.50;;;;;;;;;;492364;241;27940;-70
2021/08/11 01:11:16;;;;;;;2.40;2.20;;;;;;;;;;492354;241;27914;-70
2021/08/11 01:13:18;;;;;;;3.33;2.67;;;;;;;;;;492343;241;26873;-72
2021/08/11 01:15:20;;;;;;;2.93;2.63;;;;;;;;;;492337;241;28060;-71
2021/08/11 01:17:21;;;;;;;2.63;2.43;;;15.50;99.90;;;;;;492343;241;28059;-72
2021/08/11 01:19:25;;;;;;;2.80;2.60;;;15.50;99.90;;;;;;492234;240;28794;-72
2021/08/11 01:21:26;;;;;;;2.80;2.60;;;;;;;;;;492231;241;27474;-71
2021/08/11 01:23:27;;;;;;;2.70;2.50;;;;;;;;;;492347;241;27553;-71
2021/08/11 01:25:29;;;;;;;2.80;2.60;;;15.50;99.90;;;;;;492359;241;27359;-72
2021/08/11 01:27:31;;;;;;;2.30;2.20;;;;;;;;;;492359;241;28791;-72
2021/08/11 01:29:33;;;;;;;2.43;2.23;;;;;;;;;;492346;241;27483;-72
2021/08/11 01:31:34;;;;;;;2.80;2.60;;;15.50;99.90;;;;;;492331;241;27396;-70
2021/08/11 01:33:35;;;;;;;2.50;2.30;;;15.50;99.90;;;;;;492339;240;28777;-70
2021/08/11 01:35:36;;;;;;;3.67;2.47;;;15.50;99.90;;;;;;492254;241;29225;-69
2021/08/11 01:37:38;;;;;;;2.70;2.50;;;15.50;99.90;;;;;;492329;241;29286;-70
2021/08/11 01:39:39;;;;;;;4.37;2.60;;;15.50;99.90;;;;;;492323;241;29245;-70
2021/08/11 01:41:40;;;;;;;3.00;2.70;;;15.50;99.90;;;;;;492322;241;29301;-70
2021/08/11 01:43:41;;;;;;;2.63;2.43;;;15.40;99.90;;;;;;492317;241;28891;-69
2021/08/11 01:45:43;;;;;;;2.97;2.77;;;15.40;99.90;;;;;;492304;241;28882;-70
2021/08/11 01:47:44;;;;;;;2.60;2.40;;;15.50;99.90;;;;;;492285;241;28795;-70
2021/08/11 01:49:45;;;;;;;2.93;2.67;;;15.50;99.90;;;;;;492327;241;28754;-70
2021/08/11 01:51:46;;;;;;;2.70;2.50;;;15.60;99.90;;;;;;492301;241;28710;-70
2021/08/11 01:53:49;;;;;;;6.80;2.43;;;15.60;99.90;;;;;;492332;241;28806;-70
2021/08/11 01:55:49;;;;;;;2.57;2.37;;;15.60;99.90;;;;;;492251;241;28791;-70
2021/08/11 01:57:50;;;;;;;3.30;2.30;;;15.50;99.90;;;;;;492313;241;28915;-72
2021/08/11 01:59:51;;;;;;;3.00;2.57;;;15.50;99.90;;;;;;492295;241;29142;-71
2021/08/11 02:01:53;;;;;;;2.80;2.60;;;15.50;99.90;;;;;;492278;241;29154;-72
2021/08/11 02:03:54;;;;;;;4.30;2.53;;;15.50;99.90;;;;;;492291;241;29391;-72
2021/08/11 02:05:55;;;;;;;2.37;2.20;;;15.50;99.90;;;;;;492303;241;29468;-72
2021/08/11 02:07:56;;;;;;;2.77;2.50;;;15.50;99.90;;;;;;492322;241;28816;-72
2021/08/11 02:09:58;;;;;;;2.37;2.23;;;15.50;99.90;;;;;;492317;241;28839;-70
2021/08/11 02:11:59;;;;;;;3.03;2.27;;;15.50;99.90;;;;;;492310;241;28877;-72
2021/08/11 02:14:00;;;;;;;2.50;2.30;;;15.50;99.90;;;;;;492254;241;28831;-70
2021/08/11 02:16:01;;;;;;;2.67;2.20;;;15.40;99.90;;;;;;491979;241;29137;-72
2021/08/11 02:18:03;;;;;;;2.80;2.60;;;15.50;99.90;;;;;;491968;241;28827;-72
2021/08/11 02:20:04;;;;;;;2.90;2.70;;;15.50;99.90;;;;;;491812;241;28762;-71
2021/08/11 02:22:05;;;;;;;2.30;2.10;;;15.50;99.90;;;;;;492287;241;28683;-71
2021/08/11 02:24:06;;;;;;;2.77;2.27;;;15.50;99.90;;;;;;492313;241;29235;-72
2021/08/11 02:26:08;;;;;;;2.27;2.07;;;15.50;99.90;;;;;;492342;241;29373;-71
2021/08/11 02:28:09;;;;;;;3.07;2.87;;;15.50;99.90;;;;;;492352;241;29277;-71
2021/08/11 02:30:10;;;;;;;3.30;3.00;;;15.50;99.90;;;;;;492326;241;29262;-70
2021/08/11 02:32:11;;;;;;;3.23;2.37;;;15.50;99.90;;;;;;492346;241;28952;-70
2021/08/11 02:34:13;;;;;;;2.80;2.60;;;15.40;99.90;;;;;;492327;241;28790;-71
2021/08/11 02:36:14;;;;;;;2.30;2.20;;;15.30;99.90;;;;;;492340;241;28675;-71
2021/08/11 02:38:15;;;;;;;2.60;2.40;;;15.30;99.90;;;;;;492339;241;28884;-70
2021/08/11 02:40:16;;;;;;;2.50;2.30;;;15.30;99.90;;;;;;492340;241;28773;-71
2021/08/11 02:42:18;;;;;;;2.83;2.63;;;15.30;99.90;;;;;;492319;241;28742;-73
2021/08/11 02:44:19;;;;;;;2.40;2.30;;;15.30;99.90;;;;;;492333;241;28715;-71
2021/08/11 02:46:20;;;;;;;2.93;2.73;;;15.40;99.90;;;;;;492326;241;28857;-71
2021/08/11 02:48:21;;;;;;;2.53;2.33;;;15.40;99.90;;;;;;492331;240;28690;-70
2021/08/11 02:50:23;;;;;;;2.60;2.40;;;15.40;99.90;;;;;;492333;241;29239;-71
2021/08/11 02:52:24;;;;;;;3.00;2.80;;;15.40;99.90;;;;;;492324;241;29221;-70
2021/08/11 02:54:25;;;;;;;2.80;2.60;;;15.40;99.90;;;;;;492319;241;29301;-72
2021/08/11 02:56:26;;;;;;;2.60;2.40;;;15.40;99.90;;;;;;492337;241;28890;-72
2021/08/11 02:58:28;;;;;;;3.53;2.63;;;15.30;99.90;;;;;;491764;241;28803;-72
2021/08/11 03:00:29;;;;;;;2.60;2.40;;;15.30;99.90;;;;;;492296;241;28771;-72
2021/08/11 03:02:30;;;;;;;2.80;2.60;;;15.30;99.90;;;;;;492266;241;28850;-72
2021/08/11 03:04:31;;;;;;;2.40;2.30;;;15.20;99.90;;;;;;492314;241;28821;-70
2021/08/11 03:06:33;;;;;;;2.93;2.50;;;15.20;99.90;;;;;;492297;241;28874;-72
2021/08/11 03:08:34;;;;;;;2.83;2.63;;;15.10;99.90;;;;;;492354;241;28827;-72
2021/08/11 03:10:35;;;;;;;2.50;2.40;;;15.10;99.90;;;;;;492325;241;28779;-72
2021/08/11 03:12:37;;;;;;;2.67;2.47;;;15.10;99.90;;;;;;492301;241;28812;-71
2021/08/11 03:14:38;;;;;;;2.77;2.57;;;15.10;99.90;;;;;;492298;241;29263;-72
2021/08/11 03:16:39;;;;;;;2.60;2.40;;;15.10;99.90;;;;;;492315;241;29238;-70
2021/08/11 03:18:40;;;;;;;3.00;2.70;;;15.10;99.90;;;;;;492292;241;29318;-70
2021/08/11 03:20:42;;;;;;;2.97;2.77;;;15.20;99.90;;;;;;492311;241;29420;-70
2021/08/11 03:22:43;;;;;;;3.70;2.40;;;15.20;99.90;;;;;;492287;241;28719;-70
2021/08/11 03:24:44;;;;;;;2.80;2.60;;;15.20;99.90;;;;;;492275;241;28830;-70
2021/08/11 03:26:45;;;;;;;2.13;2.03;;;15.10;99.90;;;;;;492295;241;28763;-70
2021/08/11 03:28:47;;;;;;;2.77;2.57;;;15.20;99.90;;;;;;492289;241;28825;-72
2021/08/11 03:30:48;;;;;;;2.90;2.70;;;15.20;99.90;;;;;;492301;241;28706;-69
2021/08/11 03:32:49;;;;;;;2.40;2.20;;;15.10;99.90;;;;;;492315;241;28793;-70
2021/08/11 03:34:50;;;;;;;3.40;2.70;;;15.10;99.90;;;;;;492303;241;28841;-70
2021/08/11 03:36:52;;;;;;;3.40;2.47;;;15.10;99.90;;;;;;492331;241;28853;-69
2021/08/11 03:38:53;;;;;;;2.50;2.30;;;15.10;99.90;;;;;;492347;241;29321;-70
2021/08/11 03:40:54;;;;;;;2.40;2.20;;;15.10;99.90;;;;;;492034;240;29393;-70
2021/08/11 03:42:55;;;;;;;3.60;3.00;;;15.20;99.90;;;;;;491913;241;29291;-70
2021/08/11 03:44:57;;;;;;;2.70;2.33;;;15.20;99.90;;;;;;492235;240;29320;-70
2021/08/11 03:46:58;;;;;;;3.90;2.60;;;15.20;99.90;;;;;;492327;241;28667;-69
2021/08/11 03:48:59;;;;;;;2.97;2.77;;;15.10;99.90;;;;;;492318;241;28810;-71
2021/08/11 03:51:00;;;;;;;2.77;2.57;;;15.10;99.90;;;;;;492333;241;28674;-70
2021/08/11 03:53:02;;;;;;;2.90;2.70;;;15.10;99.90;;;;;;492298;240;28671;-70
2021/08/11 03:55:03;;;;;;;5.30;2.57;;;15.20;99.90;;;;;;492328;241;28833;-70
2021/08/11 03:57:04;;;;;;;2.70;2.50;;;15.20;99.90;;;;;;492319;241;28866;-70
2021/08/11 03:59:05;;;;;;;2.80;2.60;;;15.20;99.90;;;;;;492315;241;28797;-70
2021/08/11 04:01:07;;;;;;;3.00;2.80;;;15.20;99.90;;;;;;492319;241;28767;-70
2021/08/11 04:03:08;;;;;;;2.53;2.33;;;15.20;99.90;;;;;;492318;241;29297;-72
2021/08/11 04:05:09;;;;;;;2.47;2.27;;;15.20;99.90;;;;;;492333;241;29302;-72
2021/08/11 04:07:10;;;;;;;2.83;2.63;;;15.20;99.90;;;;;;492342;241;29313;-72
2021/08/11 04:09:12;;;;;;;2.63;2.43;;;15.30;99.90;;;;;;492339;241;29210;-72
2021/08/11 04:11:13;;;;;;;2.90;2.70;;;15.20;99.90;;;;;;492347;241;28667;-71
2021/08/11 04:13:15;;;;;;;2.53;2.33;;;15.30;99.90;;;;;;492331;241;28766;-72
2021/08/11 04:15:15;;;;;;;2.80;2.60;;;15.30;99.90;;;;;;492330;241;28595;-71
2021/08/11 04:17:17;;;;;;;3.03;2.83;;;15.30;99.90;;;;;;492345;241;28897;-71
2021/08/11 04:19:18;;;;;;;3.63;3.43;;;15.30;99.90;;;;;;492358;241;28821;-73
2021/08/11 04:21:19;;;;;;;4.30;4.00;;;15.30;99.90;;;;;;492362;241;28780;-72
2021/08/11 04:23:20;;;;;;;3.93;3.73;;;15.30;99.90;;;;;;491772;241;28831;-70
2021/08/11 04:25:22;;;;;;;3.97;3.67;;;15.20;99.90;;;;;;492332;241;28898;-71
2021/08/11 04:27:23;;;;;;;3.10;2.90;;;15.20;99.90;;;;;;492302;240;29311;-71
2021/08/11 04:29:24;;;;;;;3.93;3.63;;;15.20;99.90;;;;;;492318;241;29269;-71
2021/08/11 04:31:25;;;;;;;3.17;2.97;;;15.20;99.90;;;;;;492326;241;30038;-72
2021/08/11 04:33:27;;;;;;;3.90;3.50;;;15.20;99.90;;;;;;492293;241;29230;-72
2021/08/11 04:35:28;;;;;;;3.60;3.30;;;15.20;99.90;;;;;;492323;241;28888;-72
2021/08/11 04:37:29;;;;;;;4.63;3.10;;;15.20;99.90;;;;;;492332;241;28852;-69
2021/08/11 04:39:30;;;;;;;3.17;2.87;;;15.20;99.90;;;;;;492331;241;28844;-69
2021/08/11 04:41:32;;;;;;;3.50;3.20;;;15.20;99.90;;;;;;492340;241;28801;-70
2021/08/11 04:43:33;;;;;;;3.17;2.97;;;15.30;99.90;;;;;;492275;241;29005;-72
2021/08/11 04:45:34;;;;;;;3.20;2.90;;;15.30;99.90;;;;;;492309;241;28913;-70
2021/08/11 04:47:35;;;;;;;3.33;3.03;;;15.30;99.90;;;;;;492317;241;28762;-70
2021/08/11 04:49:37;;;;;;;3.00;2.80;;;15.30;99.90;;;;;;492296;241;28892;-69
2021/08/11 04:51:38;;;;;;;3.10;2.90;;;15.30;99.90;;;;;;492238;240;28805;-71
2021/08/11 04:53:39;;;;;;;2.67;2.47;;;15.30;99.90;;;;;;492290;241;29246;-71
2021/08/11 04:55:40;;;;;;;2.90;2.70;;;15.40;99.90;;;;;;492317;241;29391;-72
2021/08/11 04:57:42;;;;;;;2.93;2.73;;;15.40;99.90;;;;;;492320;241;29275;-72
2021/08/11 04:59:43;;;;;;;3.40;3.00;;;15.50;99.90;;;;;;492276;241;28893;-73
2021/08/11 05:01:44;;;;;;;3.20;2.77;;;15.50;99.90;;;;;;492303;241;28860;-72
2021/08/11 05:03:45;;;;;;;2.73;2.60;;;15.50;99.90;;;;;;492309;241;28690;-72
2021/08/11 05:05:47;;;;;;;3.40;2.90;;;15.50;99.90;;;;;;491613;241;28821;-70
2021/08/11 05:07:48;;;;;;;3.63;3.33;;;15.50;99.90;;;;;;491842;241;28764;-70
2021/08/11 05:09:49;;;;;;;3.27;3.07;;;15.60;99.90;;;;;;492093;240;28899;-70
2021/08/11 05:11:50;;;;;;;3.37;3.07;;;15.60;99.90;;;;;;492283;241;28839;-70
2021/08/11 05:13:52;;;;;;;3.33;3.03;;;15.60;99.90;;;;;;492352;241;28823;-70
2021/08/11 05:15:53;;;;;;;2.80;2.60;;;15.60;99.90;;;;;;492364;241;28874;-69
2021/08/11 05:17:54;;;;;;;3.00;2.80;;;15.60;99.90;;;;;;492349;241;29223;-70
2021/08/11 05:19:55;;;;;;;2.90;2.60;;;15.60;99.90;;;;;;492356;241;29262;-70
2021/08/11 05:21:57;;;;;;;2.90;2.53;;;15.60;99.90;;;;;;492335;241;29471;-70
2021/08/11 05:23:58;;;;;;;3.13;2.83;;;15.60;99.90;;;;;;492339;241;28837;-70
2021/08/11 05:25:59;;;;;;;5.20;2.70;;;15.60;99.90;;;;;;492348;241;28793;-70
2021/08/11 05:28:00;;;;;;;2.80;2.60;;;15.70;99.90;;;;;;492361;241;28833;-71
2021/08/11 05:30:02;;;;;;;2.83;2.63;;;15.70;99.90;;;;;;492342;241;28767;-70
2021/08/11 05:32:03;;;;;;;3.00;2.80;;;15.80;99.90;;;;;;492326;241;29468;-70
2021/08/11 05:34:04;;;;;;;2.90;2.70;;;15.70;99.90;;;;;;492326;241;28762;-70
2021/08/11 05:36:05;;;;;;;2.80;2.63;;;15.80;99.90;;;;;;492202;241;28817;-71
2021/08/11 05:38:07;;;;;;;2.50;2.40;;;15.80;99.90;;;;;;492364;241;28880;-72
2021/08/11 05:40:08;;;;;;;3.63;3.33;;;15.90;99.90;;;;;;492356;241;28822;-72
2021/08/11 05:42:09;;;;;;;2.67;2.47;;;15.90;99.90;;;;;;492337;241;29406;-72
2021/08/11 05:44:10;;;;;;;2.87;2.67;;;16.00;99.90;;;;;;492329;241;29415;-71
2021/08/11 05:46:12;;;;;;;2.70;2.50;;;16.00;99.90;;;;;;492347;241;29242;-73
2021/08/11 05:48:13;;;;;;;3.00;2.80;;;15.90;99.90;;;;;;492339;241;28794;-71
2021/08/11 05:50:14;;;;;;;3.13;2.93;;;15.90;99.90;;;;;;492325;241;28810;-72
2021/08/11 05:52:15;;;;;;;2.90;2.60;;;15.80;99.90;;;;;;492249;241;28897;-72
2021/08/11 05:54:17;;;;;;;2.70;2.50;;;15.80;99.90;;;;;;492347;241;28870;-72
2021/08/11 05:56:18;;;;;;;3.17;2.90;;;15.90;99.90;;;;;;492329;241;28811;-72
2021/08/11 05:58:19;;;;;;;2.97;2.70;;;15.90;99.90;;;;;;492360;241;28774;-72
2021/08/11 06:00:20;;;;;;;3.30;3.10;;;16.00;99.90;;;;;;492366;241;28929;-72
2021/08/11 06:02:22;;;;;;;2.87;2.67;;;16.20;99.90;;;;;;492331;241;28797;-70
2021/08/11 06:04:24;;;;;;;2.80;2.60;;;16.30;99.90;;;;;;492318;241;28811;-70
2021/08/11 06:06:24;;;;;;;3.00;2.70;;;16.40;99.90;;;;;;492271;241;29401;-70
2021/08/11 06:08:25;;;;;;;3.90;3.23;;;16.40;99.90;;;;;;492336;241;29218;-70
2021/08/11 06:10:27;;;;;;;5.07;3.10;;;16.40;99.90;;;;;;492296;241;29279;-70
2021/08/11 06:12:28;;;;;;;3.63;3.20;;;16.40;99.90;;;;;;492310;241;29279;-70
2021/08/11 06:14:29;;;;;;;4.50;3.10;;;16.50;99.90;;;;;;492308;241;28791;-72
2021/08/11 06:16:30;;;;;;;3.73;3.20;;;16.50;99.90;;;;;;492306;241;28822;-72
2021/08/11 06:18:32;;;;;;;3.40;2.80;;;16.60;99.90;;;;;;492325;241;28785;-71
2021/08/11 06:20:33;;;;;;;2.90;2.70;;;16.70;99.90;;;;;;492293;241;28707;-71
2021/08/11 06:22:34;;;;;;;3.00;2.80;;;16.70;99.90;;;;;;492319;241;28951;-72
2021/08/11 06:24:35;;;;;;;3.43;2.90;;;16.80;99.90;;;;;;492323;241;28877;-71
2021/08/11 06:26:37;;;;;;;3.07;2.80;;;16.80;99.90;;;;;;492313;241;28818;-72
2021/08/11 06:28:38;;;;;;;2.77;2.57;;;16.80;99.90;;;;;;492285;241;28706;-72
2021/08/11 06:30:39;;;;;;;4.10;3.20;;;16.80;99.90;;;;;;492253;241;29179;-69
2021/08/11 06:32:42;;;;;;;3.40;3.10;;;16.90;99.90;;;;;;492138;241;29322;-69
2021/08/11 06:34:42;;;;;;;2.83;2.63;;;17.00;99.90;;;;;;492211;241;29384;-72
2021/08/11 06:36:43;;;;;;;4.70;3.57;;;17.10;99.90;;;;;;492313;241;29305;-70
2021/08/11 06:38:44;;;;;;;2.90;2.70;;;17.20;99.90;;;;;;492319;241;28919;-70
2021/08/11 06:40:46;;;;;;;2.90;2.70;;;17.20;99.90;;;;;;492333;241;28858;-70
2021/08/11 06:42:47;;;;;;;3.30;3.10;;;17.10;99.90;;;;;;492349;241;28861;-70
2021/08/11 06:44:48;;;;;;;3.10;2.80;;;17.10;99.90;;;;;;492332;241;28782;-70
2021/08/11 06:46:52;;;;;;;2.80;2.60;;;;;;;;;;492356;241;28834;-70
2021/08/11 06:48:55;;;;;;;3.70;3.30;;;;;;;;;;492318;241;26780;-72
2021/08/11 06:50:58;;;;;;;2.80;2.60;;;;;;;;;;492307;241;26320;-71
2021/08/11 06:53:01;;;;;;;4.13;3.50;;;;;;;;;;492323;241;26266;-70
2021/08/11 06:55:03;;;;;;;3.57;3.27;;;17.30;99.90;;;;;;492208;241;26818;-70
2021/08/11 06:57:05;;;;;;;3.80;3.20;;;;;;;;;;492313;241;27363;-70
2021/08/11 06:59:06;;;;;;;3.03;2.83;;;17.40;99.90;;;;;;492319;241;27460;-70
2021/08/11 07:01:07;;;;;;;2.90;2.70;;;17.50;99.90;;;;;;492296;241;28722;-70
2021/08/11 07:03:09;;;;;;;3.07;2.87;;;17.60;99.90;;;;;;492318;241;28833;-72
2021/08/11 07:05:10;;;;;;;4.90;2.97;;;17.70;99.90;;;;;;492329;241;28889;-72
2021/08/11 07:07:11;;;;;;;2.80;2.60;;;17.90;99.90;;;;;;492297;241;28851;-71
2021/08/11 07:09:13;;;;;;;3.40;3.10;;;17.90;99.90;;;;;;492249;241;28738;-71
2021/08/11 07:11:14;;;;;;;2.97;2.67;;;18.00;99.90;;;;;;492285;241;28703;-71
2021/08/11 07:13:15;;;;;;;3.17;2.87;;;18.00;99.90;;;;;;492292;241;28730;-71
2021/08/11 07:15:16;;;;;;;3.40;3.10;;;18.10;99.90;;;;;;492303;240;29215;-71
2021/08/11 07:17:18;;;;;;;4.40;3.40;;;18.10;99.90;;;;;;492337;241;29389;-71
2021/08/11 07:19:20;;;;;;;3.37;3.07;;;18.10;99.90;;;;;;492346;241;29259;-71
2021/08/11 07:21:20;;;;;;;3.93;2.87;;;18.30;99.90;;;;;;492294;241;28830;-72
2021/08/11 07:23:21;;;;;;;4.53;3.20;;;18.40;99.90;;;;;;492315;241;28827;-70
2021/08/11 07:25:23;;;;;;;3.00;2.80;;;18.50;99.90;;;;;;492328;241;28760;-69
2021/08/11 07:27:24;;;;;;;3.20;2.90;;;18.60;99.90;;;;;;492314;241;28809;-69
2021/08/11 07:29:25;;;;;;;3.63;2.90;;;18.60;99.90;;;;;;492316;241;28786;-69
2021/08/11 07:31:26;;;;;;;4.90;3.30;;;18.60;99.90;;;;;;492315;241;28813;-70
2021/08/11 07:33:28;;;;;;;3.20;2.90;;;18.60;99.90;;;;;;492312;241;29534;-70
2021/08/11 07:35:29;;;;;;;3.27;2.73;;;18.70;99.90;;;;;;492331;241;28781;-69
2021/08/11 07:37:30;;;;;;;3.20;2.90;;;18.70;99.90;;;;;;492312;241;28810;-69
2021/08/11 07:39:31;;;;;;;3.60;3.23;;;18.70;99.90;;;;;;492301;241;29378;-70
2021/08/11 07:41:33;;;;;;;4.20;3.23;;;18.60;99.90;;;;;;492300;241;29388;-71
2021/08/11 07:43:34;;;;;;;3.33;2.93;;;18.70;99.90;;;;;;492309;241;29275;-72
2021/08/11 07:45:35;;;;;;;4.10;3.70;;;18.80;99.90;;;;;;492325;241;28770;-71
2021/08/11 07:47:36;;;;;;;3.50;3.20;;;19.00;99.90;;;;;;492343;241;28826;-69
2021/08/11 07:49:38;;;;;;;3.63;3.33;;;19.20;99.90;;;;;;492348;241;28776;-69
2021/08/11 07:51:39;;;;;;;3.97;3.07;;;19.30;99.90;;;;;;492312;241;28811;-69
2021/08/11 07:53:40;;;;;;;3.50;3.20;;;19.20;99.90;;;;;;492313;241;28914;-70
2021/08/11 07:55:41;;;;;;;3.80;3.50;;;19.20;99.90;;;;;;492322;240;28935;-70
2021/08/11 07:57:43;;;;;;;3.67;3.23;;;19.30;99.90;;;;;;492330;241;28901;-70
2021/08/11 07:59:44;;;;;;;5.20;3.67;;;19.20;99.90;;;;;;492335;241;28785;-70
2021/08/11 08:01:45;;;;;;;4.33;3.93;;;19.30;99.90;;;;;;492307;241;28881;-70
2021/08/11 08:03:46;;;;;;;4.30;3.90;;;19.50;99.90;;;;;;492316;241;29294;-72
2021/08/11 08:05:48;;;;;;;4.93;3.37;;;19.60;99.90;;;;;;492341;241;29259;-70
2021/08/11 08:07:49;;;;;;;3.53;3.23;;;19.50;99.90;;;;;;492309;241;29386;-72
2021/08/11 08:09:50;;;;;;;3.60;3.30;;;19.40;99.90;;;;;;492334;241;29207;-72
2021/08/11 08:11:51;;;;;;;3.13;2.93;;;19.50;99.90;;;;;;492287;241;28820;-72
2021/08/11 08:13:53;;;;;;;3.53;3.10;;;19.40;99.90;;;;;;492288;241;28742;-72
2021/08/11 08:15:54;;;;;;;3.00;2.80;;;19.40;99.90;;;;;;492327;241;28764;-71
2021/08/11 08:17:55;;;;;;;3.47;3.17;;;19.40;99.90;;;;;;492324;241;28795;-71
2021/08/11 08:19:56;;;;;;;3.00;2.73;;;19.50;99.90;;;;;;492319;241;28822;-70
2021/08/11 08:21:58;;;;;;;2.77;2.57;;;19.50;99.90;;;;;;492322;241;28785;-71
2021/08/11 08:23:59;;;;;;;2.40;2.30;;;19.50;99.90;;;;;;491932;241;28829;-71
2021/08/11 08:26:00;;;;;;;3.17;2.70;;;19.70;99.90;;;;;;492296;241;28757;-71
2021/08/11 08:28:01;;;;;;;2.87;2.53;;;19.90;99.90;;;;;;492285;241;29286;-71
2021/08/11 08:30:03;;;;;;;3.20;2.67;;;20.00;99.90;;;;;;492216;241;29561;-72
2021/08/11 08:32:04;;;;;;;4.27;3.13;;;20.20;99.90;;;;;;492329;241;29619;-72
2021/08/11 08:34:05;;;;;;;2.67;2.47;;;20.40;99.90;;;;;;492317;241;29313;-72
2021/08/11 08:36:06;;;;;;;3.77;3.10;;;20.60;99.90;;;;;;492336;241;28846;-72
2021/08/11 08:38:08;;;;;;;3.30;3.00;;;21.00;99.90;;;;;;492327;241;28895;-72
2021/08/11 08:40:09;;;;;;;2.70;2.50;;;21.20;99.90;;;;;;492324;241;28811;-71
2021/08/11 08:42:10;;;;;;;2.67;2.47;;;21.30;99.90;;;;;;492345;241;28767;-72
2021/08/11 08:44:13;;;;;;;2.90;2.70;;;21.40;99.90;;;;;;492343;241;28890;-72
2021/08/11 08:46:15;;;;;;;3.90;3.07;;;21.30;99.90;;;;;;492249;241;28788;-72
2021/08/11 08:48:14;;;;;;;3.07;2.77;;;21.30;99.90;;;;;;492180;240;28811;-71
2021/08/11 08:50:15;;;;;;;2.60;2.40;;;21.20;99.90;;;;;;492365;241;28797;-71
2021/08/11 08:52:16;;;;;;;2.37;2.17;;;21.30;99.90;;;;;;492316;241;29282;-71
2021/08/11 08:54:18;;;;;;;2.70;2.50;;;21.40;99.90;;;;;;492339;241;29332;-71
2021/08/11 08:56:19;;;;;;;2.43;2.23;;;21.30;99.90;;;;;;492327;241;29231;-71
2021/08/11 08:58:20;;;;;;;2.70;2.50;;;21.20;99.90;;;;;;492349;241;29281;-71
2021/08/11 09:00:22;;;;;;;2.30;2.10;;;21.20;99.90;;;;;;492336;241;28699;-71
2021/08/11 09:02:23;;;;;;;2.83;2.63;;;21.20;99.90;;;;;;492289;241;28781;-71
2021/08/11 09:04:24;;;;;;;2.80;2.60;;;21.20;99.90;;;;;;492324;241;28797;-71
2021/08/11 09:06:25;;;;;;;3.13;2.70;;;21.30;99.90;;;;;;492332;241;28861;-72
2021/08/11 09:08:26;;;;;;;2.33;2.13;;;21.50;99.90;;;;;;492327;241;28814;-72
2021/08/11 09:10:28;;;;;;;2.30;2.10;;;21.70;99.90;;;;;;492320;241;29169;-72
2021/08/11 09:12:29;;;;;;;2.30;2.10;;;21.90;99.90;;;;;;492278;241;28774;-72
2021/08/11 09:14:30;;;;;;;2.63;2.43;;;21.80;99.90;;;;;;492327;241;28816;-71
2021/08/11 09:16:31;;;;;;;2.60;2.40;;;21.70;99.90;;;;;;492319;241;29290;-70
2021/08/11 09:18:33;;;;;;;3.00;2.30;;;21.70;99.90;;;;;;492186;241;29266;-73
2021/08/11 09:20:34;;;;;;;2.20;2.10;;;21.80;99.90;;;;;;492335;241;29392;-72
2021/08/11 09:22:35;;;;;;;2.40;2.20;;;21.80;99.90;;;;;;492331;241;29256;-71
2021/08/11 09:24:36;;;;;;;2.33;2.10;;;21.70;99.90;;;;;;492320;241;28790;-72
2021/08/11 09:26:38;;;;;;;4.80;2.40;;;21.50;99.90;;;;;;492331;241;28789;-70
2021/08/11 09:28:39;;;;;;;2.70;2.17;;;21.40;99.90;;;;;;492310;241;28711;-71
2021/08/11 09:30:40;;;;;;;1.83;1.73;;;21.40;99.90;;;;;;492341;241;28812;-71
2021/08/11 09:32:41;;;;;;;1.93;1.83;;;21.50;99.90;;;;;;492315;241;28824;-71
2021/08/11 09:34:43;;;;;;;2.20;2.10;;;21.50;99.90;;;;;;492301;241;28845;-71
2021/08/11 09:36:48;;;;;;;2.30;2.20;;;21.60;99.90;;;;;;492319;241;28919;-71
2021/08/11 09:38:45;;;;;;;2.20;2.00;;;21.70;99.90;;;;;;492008;241;29215;-71
2021/08/11 09:40:46;;;;;;;2.20;2.00;;;21.90;99.90;;;;;;492325;241;29296;-72
2021/08/11 09:42:48;;;;;;;2.73;1.93;;;22.20;99.90;;;;;;492334;241;29213;-70
2021/08/11 09:44:49;;;;;;;2.20;2.00;;;22.30;99.90;;;;;;492311;241;28903;-71
2021/08/11 09:46:50;;;;;;;2.83;1.93;;;22.40;99.90;;;;;;492316;241;28892;-71
2021/08/11 09:48:51;;;;;;;2.50;2.30;;;22.60;99.90;;;;;;492326;241;28840;-71
2021/08/11 09:50:58;;;;;;;2.00;1.90;;;22.50;99.90;;;;;;492331;241;28902;-70
2021/08/11 09:52:54;;;;;;;2.50;2.30;;;22.60;99.90;;;;;;491806;241;28848;-71
2021/08/11 09:54:55;;;;;;;3.37;2.03;;;22.50;99.90;;;;;;492309;241;28709;-71
2021/08/11 09:56:56;;;;;;;2.50;2.27;;;22.30;99.90;;;;;;492299;241;28890;-72
2021/08/11 09:58:58;;;;;;;3.97;2.50;;;22.20;99.90;;;;;;492332;241;28785;-71
2021/08/11 10:00:59;;;;;;;3.73;2.30;;;22.10;99.90;;;;;;492334;241;28808;-72
2021/08/11 10:03:00;;;;;;;2.40;2.20;;;22.30;99.90;;;;;;492312;241;29239;-71
2021/08/11 10:05:01;;;;;;;3.03;2.40;;;22.30;99.90;;;;;;492310;241;29346;-71
2021/08/11 10:07:03;;;;;;;2.33;2.13;;;22.40;99.90;;;;;;492216;241;29393;-71
2021/08/11 10:09:04;;;;;;;2.40;2.30;;;22.40;99.90;;;;;;492321;241;28804;-71
2021/08/11 10:11:05;;;;;;;2.57;2.30;;;22.50;99.90;;;;;;492286;241;28813;-71
2021/08/11 10:13:06;;;;;;;2.37;2.17;;;22.50;99.90;;;;;;492310;241;28668;-71
2021/08/11 10:15:08;;;;;;;2.53;2.10;;;22.60;99.90;;;;;;492302;241;28823;-71
2021/08/11 10:17:09;;;;;;;2.10;2.00;;;22.50;99.90;;;;;;492304;241;29162;-70
2021/08/11 10:19:10;;;;;;;2.60;2.27;;;22.50;99.90;;;;;;492315;241;28900;-71
2021/08/11 10:21:11;;;;;;;2.70;2.23;;;22.50;99.90;;;;;;492305;241;28866;-71
2021/08/11 10:23:13;;;;;;;2.50;2.30;;;22.50;99.90;;;;;;492328;241;28683;-71
2021/08/11 10:25:14;;;;;;;2.70;2.40;;;22.60;99.90;;;;;;492335;241;28825;-72
2021/08/11 10:27:17;;;;;;;2.20;2.10;;;22.50;99.90;;;;;;492313;241;29377;-71
2021/08/11 10:29:17;;;;;;;1.90;1.80;;;22.40;99.90;;;;;;492208;241;29253;-71
2021/08/11 10:31:18;;;;;;;2.43;2.23;;;22.30;99.90;;;;;;492327;241;29377;-71
2021/08/11 10:33:19;;;;;;;2.63;2.43;;;22.40;99.90;;;;;;492338;240;28775;-71
2021/08/11 10:35:20;;;;;;;3.10;2.73;;;22.30;99.90;;;;;;492308;241;28706;-71